Time;durP1;ratioP1;P1;durP2;ratioP2;P2;SDS_P1;SDS_P2;PMS_P1;PMS_P2;Temp;Humidity;BMP_temperature;BMP_pressure;BME280_temperature;BME280_humidity;BME280_pressure;Samples;Min_cycle;Max_cycle;Signal;HPM_P1;HPM_P2
2022/01/17 00:00:14;;;;;;;17.33;16.53;;;18.60;60.40;;;;;;5034335;28;20469;-49
2022/01/17 00:02:41;;;;;;;18.83;17.53;;;18.60;60.60;;;;;;5034356;28;20449;-48
2022/01/17 00:05:10;;;;;;;16.30;15.50;;;18.50;60.30;;;;;;5034535;28;20472;-53
2022/01/17 00:07:37;;;;;;;16.50;15.70;;;18.50;60.60;;;;;;5034523;28;20441;-52
2022/01/17 00:10:07;;;;;;;16.43;15.63;;;18.60;60.70;;;;;;5034137;28;20465;-47
2022/01/17 00:12:37;;;;;;;18.37;17.27;;;18.50;60.60;;;;;;5014405;28;20472;-48
2022/01/17 00:15:11;;;;;;;16.50;15.70;;;18.40;60.60;;;;;;5017636;28;20459;-51
2022/01/17 00:17:41;;;;;;;17.10;16.20;;;18.40;60.90;;;;;;5034293;28;20458;-50
2022/01/17 00:20:11;;;;;;;17.30;16.40;;;18.40;60.70;;;;;;5033969;28;20469;-51
2022/01/17 00:22:39;;;;;;;16.87;15.97;;;18.40;61.10;;;;;;5032611;28;20524;-49
2022/01/17 00:25:09;;;;;;;18.33;17.20;;;18.40;61.40;;;;;;5034161;28;20939;-48
2022/01/17 00:27:36;;;;;;;17.33;16.43;;;18.40;61.60;;;;;;5034168;28;20485;-49
2022/01/17 00:30:04;;;;;;;18.03;17.03;;;18.40;61.60;;;;;;5033664;28;20559;-49
2022/01/17 00:32:31;;;;;;;18.33;17.33;;;18.40;61.90;;;;;;5032063;28;20510;-49
2022/01/17 00:34:59;;;;;;;17.10;16.27;;;18.40;61.80;;;;;;5034003;28;20480;-46
2022/01/17 00:37:26;;;;;;;16.80;16.03;;;18.40;62.20;;;;;;5034160;28;20447;-48
2022/01/17 00:39:53;;;;;;;17.47;16.47;;;18.40;62.10;;;;;;5033903;28;20473;-46
2022/01/17 00:42:22;;;;;;;17.37;16.30;;;18.40;62.00;;;;;;5033316;28;20445;-46
2022/01/17 00:44:49;;;;;;;17.97;16.73;;;18.40;62.20;;;;;;5033833;28;20445;-48
2022/01/17 00:47:16;;;;;;;16.90;16.00;;;18.30;62.50;;;;;;5033663;28;20513;-47
2022/01/17 00:49:43;;;;;;;18.27;17.20;;;18.40;62.60;;;;;;5033279;28;20983;-46
2022/01/17 00:52:11;;;;;;;16.47;15.67;;;18.40;62.40;;;;;;5033297;28;20978;-48
2022/01/17 00:54:38;;;;;;;16.13;15.40;;;18.40;62.60;;;;;;5033814;28;20456;-50
2022/01/17 00:57:05;;;;;;;15.93;15.33;;;18.30;63.40;;;;;;5033627;28;20572;-47
2022/01/17 00:59:33;;;;;;;16.83;15.97;;;18.20;63.00;;;;;;5033090;28;20472;-54
2022/01/17 01:02:00;;;;;;;16.53;15.63;;;18.20;63.40;;;;;;5033207;28;20453;-49
2022/01/17 01:04:27;;;;;;;16.40;15.50;;;18.30;63.70;;;;;;5033420;28;20792;-48
2022/01/17 01:06:54;;;;;;;16.03;15.33;;;18.40;63.50;;;;;;5033405;28;20481;-47
2022/01/17 01:09:23;;;;;;;15.50;14.80;;;18.30;63.30;;;;;;5033016;28;20503;-46
2022/01/17 01:11:50;;;;;;;15.70;15.10;;;18.20;63.70;;;;;;5033152;28;20449;-46
2022/01/17 01:14:17;;;;;;;16.30;15.57;;;18.30;64.00;;;;;;5033272;28;20942;-50
2022/01/17 01:16:45;;;;;;;15.30;14.60;;;18.30;63.90;;;;;;5033186;28;20440;-52
2022/01/17 01:27:38;;;;;;;16.70;15.80;;;18.30;63.80;;;;;;5032778;28;20433;-50
2022/01/17 01:27:53;;;;;;;17.40;16.47;;;18.30;64.10;;;;;;5033094;28;20476;-49
2022/01/17 01:30:23;;;;;;;16.57;15.63;;;18.20;64.20;;;;;;5032732;28;20822;-50
2022/01/17 01:32:54;;;;;;;16.00;15.30;;;18.20;64.30;;;;;;5032301;28;20453;-51
2022/01/17 01:35:25;;;;;;;17.50;16.43;;;18.30;64.40;;;;;;5032863;28;20528;-50
2022/01/17 01:37:52;;;;;;;16.13;15.23;;;18.20;64.30;;;;;;5032873;28;20465;-51
2022/01/17 01:40:21;;;;;;;16.13;15.37;;;18.10;64.70;;;;;;5032540;28;20483;-50
2022/01/17 01:42:51;;;;;;;16.70;15.80;;;18.10;64.90;;;;;;5032616;28;20459;-51
2022/01/17 01:45:20;;;;;;;15.67;14.87;;;18.10;65.60;;;;;;5032618;28;20502;-48
2022/01/17 01:47:48;;;;;;;14.53;13.87;;;18.10;65.60;;;;;;5032676;28;20481;-47
2022/01/17 01:50:18;;;;;;;15.40;14.70;;;18.10;65.50;;;;;;5032695;28;20472;-48
2022/01/17 01:52:46;;;;;;;16.30;15.37;;;18.10;65.40;;;;;;5032306;28;20445;-49
2022/01/17 01:55:15;;;;;;;15.93;15.23;;;18.10;65.70;;;;;;5032528;28;20445;-53
2022/01/17 01:57:44;;;;;;;16.33;15.63;;;18.20;65.60;;;;;;5032199;28;20446;-53
2022/01/17 02:00:13;;;;;;;15.37;14.67;;;18.20;65.50;;;;;;5032389;28;20989;-48
2022/01/17 02:02:40;;;;;;;15.80;15.07;;;18.20;65.40;;;;;;5032050;28;20448;-47
2022/01/17 02:05:08;;;;;;;17.80;16.80;;;18.20;65.50;;;;;;5032366;28;20460;-51
2022/01/17 02:07:38;;;;;;;15.97;15.20;;;18.10;65.30;;;;;;5031836;28;21041;-48
2022/01/17 02:10:06;;;;;;;15.77;15.03;;;18.10;65.60;;;;;;5032277;28;20500;-49
2022/01/17 02:12:33;;;;;;;16.77;15.80;;;18.10;65.90;;;;;;5031999;28;20452;-50
2022/01/17 02:15:00;;;;;;;16.57;15.77;;;18.00;66.10;;;;;;5032140;28;20456;-52
2022/01/17 02:17:30;;;;;;;17.50;16.50;;;17.90;66.50;;;;;;5031844;28;20810;-48
2022/01/17 02:20:05;;;;;;;16.57;15.67;;;17.90;66.70;;;;;;5031911;28;20518;-54
2022/01/17 02:22:32;;;;;;;17.37;16.57;;;17.90;67.00;;;;;;5031879;28;20449;-49
2022/01/17 02:25:00;;;;;;;16.17;15.47;;;17.90;67.10;;;;;;5031891;28;20927;-50
2022/01/17 02:27:27;;;;;;;16.43;15.63;;;17.90;67.10;;;;;;5031640;28;20473;-52
2022/01/17 02:29:54;;;;;;;17.60;16.70;;;17.90;67.10;;;;;;5031744;28;20476;-48
2022/01/17 02:32:21;;;;;;;15.57;14.87;;;17.90;67.30;;;;;;5031600;28;20535;-50
2022/01/17 02:34:48;;;;;;;17.10;16.20;;;18.00;67.10;;;;;;5031833;28;20445;-51
2022/01/17 02:37:18;;;;;;;16.90;16.00;;;18.00;67.00;;;;;;5031508;28;20449;-49
2022/01/17 02:39:45;;;;;;;16.17;15.30;;;18.00;66.70;;;;;;5031607;28;20556;-47
2022/01/17 02:42:16;;;;;;;18.07;17.13;;;18.00;66.70;;;;;;5031514;28;20455;-47
2022/01/17 02:44:45;;;;;;;17.10;16.10;;;17.90;67.10;;;;;;5030951;28;20445;-52
2022/01/17 02:47:15;;;;;;;17.10;16.30;;;17.90;67.50;;;;;;5031288;28;20882;-49
2022/01/17 02:49:42;;;;;;;17.50;16.60;;;17.90;67.60;;;;;;5031374;28;20477;-52
2022/01/17 02:52:10;;;;;;;15.60;14.90;;;17.90;67.70;;;;;;5031462;28;20445;-50
2022/01/17 02:54:38;;;;;;;16.10;15.40;;;17.80;67.90;;;;;;5031551;28;20838;-49
2022/01/17 02:57:07;;;;;;;16.03;15.27;;;17.90;68.00;;;;;;5031202;28;20540;-47
2022/01/17 02:59:34;;;;;;;16.80;15.90;;;17.80;67.90;;;;;;5031469;28;20469;-52
2022/01/17 03:02:03;;;;;;;15.83;15.13;;;17.80;67.80;;;;;;5031317;28;20488;-48
2022/01/17 03:04:31;;;;;;;16.37;15.53;;;17.80;67.90;;;;;;5031353;28;21012;-51
2022/01/17 03:06:58;;;;;;;18.53;17.40;;;17.80;67.80;;;;;;5031382;28;20484;-52
2022/01/17 03:09:27;;;;;;;16.70;15.90;;;17.80;67.70;;;;;;5031253;28;20449;-46
2022/01/17 03:11:56;;;;;;;16.07;15.37;;;17.90;67.70;;;;;;5031174;28;20453;-47
2022/01/17 03:14:23;;;;;;;16.23;15.40;;;17.90;68.00;;;;;;5031095;28;20453;-49
2022/01/17 03:16:50;;;;;;;17.10;16.20;;;18.00;67.50;;;;;;5031324;28;20450;-49
2022/01/17 03:19:17;;;;;;;14.97;14.30;;;18.00;67.10;;;;;;5031195;28;20484;-48
2022/01/17 03:21:44;;;;;;;15.57;14.87;;;17.80;67.70;;;;;;5031168;28;20535;-51
2022/01/17 03:24:11;;;;;;;18.17;17.10;;;17.80;68.00;;;;;;5030902;28;20447;-46
2022/01/17 03:26:38;;;;;;;16.37;15.63;;;17.80;68.10;;;;;;5030888;28;20480;-52
2022/01/17 03:29:06;;;;;;;15.33;14.67;;;17.70;68.40;;;;;;5031315;28;20445;-49
2022/01/17 03:31:33;;;;;;;15.67;14.87;;;17.80;68.60;;;;;;5031019;28;20804;-50
2022/01/17 03:34:01;;;;;;;16.33;15.53;;;17.80;68.40;;;;;;5030907;28;20441;-50
2022/01/17 03:36:28;;;;;;;16.63;15.77;;;17.70;68.60;;;;;;5031222;28;20448;-52
2022/01/17 03:38:55;;;;;;;15.13;14.53;;;17.70;68.80;;;;;;5031174;28;20817;-51
2022/01/17 03:41:23;;;;;;;16.33;15.60;;;17.80;68.90;;;;;;5031146;28;20958;-48
2022/01/17 03:43:50;;;;;;;17.20;16.30;;;17.70;68.70;;;;;;5030585;28;20595;-47
2022/01/17 03:46:19;;;;;;;17.47;16.50;;;17.70;68.90;;;;;;5030933;28;20453;-49
2022/01/17 03:48:46;;;;;;;15.10;14.40;;;17.80;69.00;;;;;;5031190;28;20445;-48
2022/01/17 03:51:13;;;;;;;15.70;15.00;;;17.70;68.70;;;;;;5030994;28;20567;-47
2022/01/17 03:53:40;;;;;;;16.60;15.80;;;17.70;69.00;;;;;;5030578;28;20452;-46
2022/01/17 03:56:07;;;;;;;16.07;15.27;;;17.70;69.00;;;;;;5032375;28;20467;-51
2022/01/17 03:58:34;;;;;;;17.37;16.27;;;17.80;68.90;;;;;;5034813;28;20472;-52
2022/01/17 04:01:03;;;;;;;17.30;16.40;;;17.80;68.70;;;;;;5034542;28;20468;-48
2022/01/17 04:03:32;;;;;;;16.40;15.60;;;17.70;68.60;;;;;;5034486;28;20453;-49
2022/01/17 04:05:59;;;;;;;15.77;15.07;;;17.80;68.60;;;;;;5034187;28;20961;-47
2022/01/17 04:08:26;;;;;;;16.80;15.93;;;17.70;68.80;;;;;;5034493;28;20893;-49
2022/01/17 04:10:53;;;;;;;16.07;15.27;;;17.70;69.00;;;;;;5034365;28;20471;-49
2022/01/17 04:13:21;;;;;;;15.13;14.37;;;17.80;69.00;;;;;;5033920;28;20448;-47
2022/01/17 04:15:48;;;;;;;16.83;15.90;;;17.80;68.70;;;;;;5034482;28;20477;-49
2022/01/17 04:18:19;;;;;;;17.63;16.63;;;17.80;68.80;;;;;;5034340;28;20460;-49
2022/01/17 04:20:48;;;;;;;16.77;15.97;;;17.80;69.00;;;;;;5034255;28;20824;-50
2022/01/17 04:23:15;;;;;;;16.23;15.33;;;17.70;68.90;;;;;;5033853;28;20480;-49
2022/01/17 04:25:43;;;;;;;15.90;15.00;;;17.80;69.20;;;;;;5034071;28;20449;-52
2022/01/17 04:28:13;;;;;;;15.80;15.10;;;17.80;69.40;;;;;;5034004;28;20476;-49
2022/01/17 04:30:41;;;;;;;15.30;14.60;;;17.70;70.30;;;;;;5033977;28;20464;-51
2022/01/17 04:33:08;;;;;;;16.60;15.50;;;17.70;69.60;;;;;;5033576;28;20445;-52
2022/01/17 04:35:36;;;;;;;16.00;15.20;;;17.70;69.60;;;;;;5033975;28;20448;-46
2022/01/17 04:38:07;;;;;;;16.20;15.40;;;17.80;69.40;;;;;;5034008;28;20528;-49
2022/01/17 04:40:36;;;;;;;14.80;14.10;;;17.70;69.40;;;;;;5033889;28;20468;-53
2022/01/17 04:43:05;;;;;;;16.03;15.23;;;17.70;69.80;;;;;;5033340;28;20511;-51
2022/01/17 04:45:33;;;;;;;15.93;15.23;;;17.70;69.80;;;;;;5033946;28;20459;-55
2022/01/17 04:48:00;;;;;;;15.13;14.50;;;17.80;69.80;;;;;;5033744;28;20480;-52
2022/01/17 04:50:29;;;;;;;15.50;14.80;;;17.80;69.80;;;;;;5033503;28;20476;-50
2022/01/17 04:52:58;;;;;;;15.43;14.73;;;17.70;69.50;;;;;;5033111;28;20456;-49
2022/01/17 04:55:28;;;;;;;15.00;14.30;;;17.80;69.50;;;;;;5033736;28;20814;-49
2022/01/17 04:57:57;;;;;;;16.00;15.30;;;17.80;69.70;;;;;;5033609;28;20465;-49
2022/01/17 05:00:26;;;;;;;15.60;14.90;;;17.70;70.10;;;;;;5033477;28;20472;-53
2022/01/17 05:02:53;;;;;;;15.60;14.90;;;17.70;70.20;;;;;;5033172;28;20453;-47
2022/01/17 05:05:20;;;;;;;15.40;14.70;;;17.70;70.20;;;;;;5033557;28;20610;-47
2022/01/17 05:07:48;;;;;;;15.90;15.20;;;17.70;70.40;;;;;;5032487;28;20492;-51
2022/01/17 05:10:16;;;;;;;17.30;16.40;;;17.80;70.40;;;;;;5033317;28;20468;-51
2022/01/17 05:12:45;;;;;;;18.33;17.33;;;17.70;70.10;;;;;;5032823;28;20857;-52
2022/01/17 05:15:23;;;;;;;17.07;16.27;;;17.70;70.30;;;;;;5033215;28;20445;-47
2022/01/17 05:18:00;;;;;;;16.70;15.90;;;17.70;70.40;;;;;;5033339;28;20452;-48
2022/01/17 05:20:27;;;;;;;16.90;16.17;;;17.70;70.20;;;;;;5033174;28;20465;-47
2022/01/17 05:22:54;;;;;;;17.17;16.37;;;17.70;70.40;;;;;;5032543;28;20549;-46
2022/01/17 05:25:21;;;;;;;17.27;16.27;;;17.80;70.50;;;;;;5033016;28;20946;-50
2022/01/17 05:27:49;;;;;;;17.70;16.80;;;17.80;70.50;;;;;;5032834;28;20476;-49
2022/01/17 05:30:19;;;;;;;16.17;15.47;;;17.80;70.80;;;;;;5032991;28;20531;-48
2022/01/17 05:32:46;;;;;;;16.30;15.60;;;17.70;71.50;;;;;;5032412;28;20460;-54
2022/01/17 05:35:13;;;;;;;17.07;16.17;;;17.70;71.60;;;;;;5033106;28;20441;-47
2022/01/17 05:37:41;;;;;;;16.57;15.87;;;17.70;71.70;;;;;;5032883;28;20449;-49
2022/01/17 05:40:09;;;;;;;16.13;15.43;;;17.70;72.00;;;;;;5032754;28;20874;-46
2022/01/17 05:42:37;;;;;;;16.87;15.90;;;17.70;72.30;;;;;;5032207;28;20819;-48
2022/01/17 05:45:06;;;;;;;19.07;17.63;;;17.80;72.10;;;;;;5032673;28;20441;-47
2022/01/17 05:47:33;;;;;;;20.30;18.13;;;17.70;89.50;;;;;;5032620;28;20539;-48
2022/01/17 05:50:02;;;;;;;18.93;17.00;;;17.90;99.90;;;;;;5032403;28;20886;-50
2022/01/17 05:52:29;;;;;;;19.27;17.80;;;18.40;99.90;;;;;;5032082;28;20942;-47
2022/01/17 05:54:56;;;;;;;19.10;17.40;;;19.60;97.90;;;;;;5032212;28;20448;-50
2022/01/17 05:57:23;;;;;;;19.87;18.13;;;20.20;95.80;;;;;;5032608;28;20445;-52
2022/01/17 05:59:49;;;;;;;19.80;18.30;;;20.60;94.80;;;;;;5032578;28;20473;-50
2022/01/17 06:02:17;;;;;;;18.80;16.73;;;20.90;95.00;;;;;;5031989;28;20456;-50
2022/01/17 06:04:44;;;;;;;21.53;19.57;;;21.00;94.90;;;;;;5032276;28;20863;-51
2022/01/17 06:07:11;;;;;;;20.47;18.30;;;21.10;94.60;;;;;;5032187;28;20445;-51
2022/01/17 06:09:38;;;;;;;19.33;17.90;;;21.20;94.40;;;;;;5032126;28;20469;-51
2022/01/17 06:12:06;;;;;;;22.33;20.37;;;21.10;93.80;;;;;;5031495;28;20464;-51
2022/01/17 06:14:34;;;;;;;19.87;18.40;;;21.20;92.70;;;;;;5031968;28;20798;-55
2022/01/17 06:17:01;;;;;;;20.33;18.67;;;21.30;91.70;;;;;;5031886;28;20504;-52
2022/01/17 06:19:29;;;;;;;20.97;19.17;;;21.30;90.70;;;;;;5031952;28;20437;-51
2022/01/17 06:21:56;;;;;;;21.17;19.47;;;21.20;89.70;;;;;;5031678;28;20822;-51
2022/01/17 06:24:24;;;;;;;20.20;18.63;;;21.30;86.70;;;;;;5031144;28;20441;-52
2022/01/17 06:26:52;;;;;;;21.80;20.50;;;21.30;85.10;;;;;;5031806;28;20449;-55
2022/01/17 06:29:19;;;;;;;19.50;17.70;;;21.20;83.90;;;;;;5031694;28;20480;-49
2022/01/17 06:31:46;;;;;;;19.80;17.80;;;21.20;82.60;;;;;;5031656;28;20445;-50
2022/01/17 06:34:14;;;;;;;19.33;18.13;;;21.10;81.40;;;;;;5031619;28;20535;-50
2022/01/17 06:36:42;;;;;;;17.90;16.90;;;21.00;80.50;;;;;;5031916;28;20446;-53
2022/01/17 06:39:10;;;;;;;19.97;18.67;;;21.00;79.60;;;;;;5031727;28;20452;-48
2022/01/17 06:41:38;;;;;;;20.17;18.93;;;21.00;78.50;;;;;;5031460;28;20449;-50
2022/01/17 06:44:05;;;;;;;19.23;18.13;;;21.00;77.70;;;;;;5031567;28;20485;-52
2022/01/17 06:46:33;;;;;;;19.13;17.80;;;21.00;76.90;;;;;;5031656;28;20947;-50
2022/01/17 06:49:00;;;;;;;19.80;18.60;;;20.90;76.00;;;;;;5031626;28;21011;-54
2022/01/17 06:51:27;;;;;;;19.77;18.47;;;20.90;75.30;;;;;;5031242;28;20542;-56
2022/01/17 06:53:56;;;;;;;18.27;17.20;;;20.80;74.20;;;;;;5031488;28;20448;-50
2022/01/17 06:56:23;;;;;;;21.43;20.03;;;20.80;74.00;;;;;;5031581;28;20444;-49
2022/01/17 06:58:50;;;;;;;19.37;18.27;;;20.80;73.00;;;;;;5031442;28;20942;-51
2022/01/17 07:01:20;;;;;;;18.50;17.50;;;20.70;72.60;;;;;;5031364;28;20465;-55
2022/01/17 07:03:47;;;;;;;20.93;19.63;;;20.80;72.10;;;;;;5031344;28;20441;-54
2022/01/17 07:06:15;;;;;;;19.30;18.20;;;20.70;71.10;;;;;;5031477;28;20449;-54
2022/01/17 07:08:43;;;;;;;18.80;17.53;;;20.60;71.00;;;;;;5031334;28;20823;-54
2022/01/17 07:11:12;;;;;;;19.70;18.50;;;20.60;70.80;;;;;;5031386;28;21056;-52
2022/01/17 07:13:39;;;;;;;19.73;18.50;;;20.50;70.00;;;;;;5031121;28;20449;-51
2022/01/17 07:16:06;;;;;;;16.70;15.70;;;20.50;69.80;;;;;;5031320;28;20449;-50
2022/01/17 07:18:33;;;;;;;16.70;15.60;;;20.40;69.70;;;;;;5031333;28;20467;-49
2022/01/17 07:21:00;;;;;;;16.93;15.97;;;20.40;69.40;;;;;;5031339;28;20465;-51
2022/01/17 07:23:27;;;;;;;17.10;16.10;;;20.40;69.10;;;;;;5030938;28;20799;-50
2022/01/17 07:25:54;;;;;;;16.10;15.30;;;20.30;68.40;;;;;;5031278;28;20452;-49
2022/01/17 07:28:23;;;;;;;16.57;15.77;;;20.30;68.10;;;;;;5031026;28;20612;-50
2022/01/17 07:30:50;;;;;;;17.00;15.90;;;20.30;67.80;;;;;;5032124;28;20468;-53
2022/01/17 07:33:20;;;;;;;16.80;15.90;;;20.20;67.00;;;;;;5034953;28;20445;-52
2022/01/17 07:35:48;;;;;;;16.93;16.10;;;20.20;67.00;;;;;;5035021;28;21008;-51
2022/01/17 07:38:15;;;;;;;16.30;15.60;;;20.10;66.60;;;;;;5034997;28;20449;-49
2022/01/17 07:40:43;;;;;;;16.60;15.70;;;20.10;66.80;;;;;;5034939;28;20475;-48
2022/01/17 07:43:10;;;;;;;17.77;16.67;;;20.10;67.30;;;;;;5034729;28;20448;-54
2022/01/17 07:45:46;;;;;;;17.37;16.33;;;20.00;66.30;;;;;;5035006;28;20946;-54
2022/01/17 07:48:45;;;;;;;16.67;15.87;;;20.00;66.00;;;;;;5034942;28;21017;-56
2022/01/17 07:51:12;;;;;;;16.20;15.40;;;20.00;66.00;;;;;;5035257;28;20469;-51
2022/01/17 07:53:40;;;;;;;17.20;16.20;;;19.90;65.90;;;;;;5034492;28;20444;-50
2022/01/17 07:56:07;;;;;;;16.47;15.57;;;19.80;65.40;;;;;;5034871;28;20441;-51
2022/01/17 07:58:34;;;;;;;18.33;17.43;;;19.80;65.60;;;;;;5034707;28;20529;-53
2022/01/17 08:01:03;;;;;;;16.47;15.57;;;19.70;65.50;;;;;;5034628;28;20492;-53
2022/01/17 08:03:30;;;;;;;17.40;16.47;;;19.60;65.60;;;;;;5034340;28;20536;-50
2022/01/17 08:05:57;;;;;;;17.10;16.30;;;19.60;65.30;;;;;;5034611;28;20445;-50
2022/01/17 08:08:24;;;;;;;18.37;17.33;;;19.50;65.40;;;;;;5034388;28;20485;-49
2022/01/17 08:10:51;;;;;;;16.30;15.53;;;19.40;65.30;;;;;;5034482;28;20473;-51
2022/01/17 08:13:18;;;;;;;17.10;16.30;;;19.30;65.80;;;;;;5034114;28;20535;-52
2022/01/17 08:15:46;;;;;;;18.57;17.60;;;19.20;66.00;;;;;;5034550;28;20457;-50
2022/01/17 08:18:15;;;;;;;18.37;16.97;;;19.20;65.90;;;;;;5034289;28;20464;-51
2022/01/17 08:20:42;;;;;;;17.00;16.10;;;19.10;65.70;;;;;;5034341;28;20531;-50
2022/01/17 08:23:10;;;;;;;18.33;17.37;;;19.10;66.20;;;;;;5033996;28;20449;-52
2022/01/17 08:25:38;;;;;;;17.50;16.57;;;19.00;66.00;;;;;;5034195;28;20953;-51
2022/01/17 08:28:05;;;;;;;17.23;16.40;;;19.00;66.00;;;;;;5033952;28;20481;-50
2022/01/17 08:30:33;;;;;;;19.17;18.13;;;18.90;66.00;;;;;;5034218;28;20487;-52
2022/01/17 08:33:01;;;;;;;17.90;16.87;;;18.90;66.10;;;;;;5033821;28;20449;-47
2022/01/17 08:35:29;;;;;;;18.47;17.50;;;18.80;66.20;;;;;;5034033;28;20457;-49
2022/01/17 08:37:56;;;;;;;16.90;16.00;;;18.70;65.90;;;;;;5034047;28;20446;-47
2022/01/17 08:40:24;;;;;;;16.53;15.73;;;18.60;66.10;;;;;;5033777;28;20471;-50
2022/01/17 08:42:51;;;;;;;15.67;15.07;;;18.50;66.60;;;;;;5032476;28;20449;-52
2022/01/17 08:45:21;;;;;;;17.17;16.27;;;18.40;66.70;;;;;;5033804;28;20492;-51
2022/01/17 08:47:49;;;;;;;16.80;15.77;;;18.40;66.80;;;;;;5033915;28;20870;-51
2022/01/17 08:50:18;;;;;;;16.73;16.03;;;18.30;67.00;;;;;;5033632;28;20998;-50
2022/01/17 08:52:47;;;;;;;15.67;14.87;;;18.30;67.30;;;;;;5033422;28;20456;-49
2022/01/17 08:55:15;;;;;;;17.17;16.07;;;18.30;67.30;;;;;;5033599;28;20453;-52
2022/01/17 08:57:42;;;;;;;17.93;16.97;;;18.20;67.10;;;;;;5033539;28;20483;-52
2022/01/17 09:00:12;;;;;;;16.83;15.83;;;18.20;67.30;;;;;;5033379;28;21073;-51
2022/01/17 09:02:39;;;;;;;17.00;16.10;;;18.20;67.30;;;;;;5033251;28;20449;-52
2022/01/17 09:05:07;;;;;;;19.27;18.17;;;18.20;67.40;;;;;;5033463;28;20511;-51
2022/01/17 09:07:34;;;;;;;16.30;15.50;;;18.10;67.20;;;;;;5033562;28;20823;-50
2022/01/17 09:10:04;;;;;;;16.47;15.57;;;18.20;67.30;;;;;;5033209;28;20489;-55
2022/01/17 09:12:31;;;;;;;15.90;15.10;;;18.20;66.90;;;;;;5033152;28;20481;-55
2022/01/17 09:14:59;;;;;;;15.37;14.70;;;18.30;66.60;;;;;;5033400;28;20456;-52
2022/01/17 09:17:26;;;;;;;17.40;16.60;;;18.40;67.00;;;;;;5033182;28;20444;-50
2022/01/17 09:19:53;;;;;;;17.03;16.03;;;18.50;65.60;;;;;;5033175;28;21028;-51
2022/01/17 09:22:20;;;;;;;16.10;15.40;;;18.40;65.00;;;;;;5032875;28;20939;-50
2022/01/17 09:24:47;;;;;;;15.00;14.27;;;18.40;64.90;;;;;;5033207;28;20946;-54
2022/01/17 09:27:16;;;;;;;15.00;14.40;;;18.40;65.00;;;;;;5033261;28;20491;-49
2022/01/17 09:29:44;;;;;;;16.37;15.50;;;18.40;65.00;;;;;;5032836;28;20485;-49
2022/01/17 09:32:11;;;;;;;16.90;16.17;;;18.20;65.00;;;;;;5032776;28;20511;-51
2022/01/17 09:34:38;;;;;;;16.33;15.53;;;18.20;65.60;;;;;;5032970;28;20445;-56
2022/01/17 09:37:05;;;;;;;16.33;15.63;;;18.40;65.80;;;;;;5032831;28;20449;-49
2022/01/17 09:39:33;;;;;;;17.30;16.40;;;18.80;64.50;;;;;;5032735;28;20460;-52
2022/01/17 09:42:00;;;;;;;16.87;16.07;;;19.10;63.00;;;;;;5032569;28;20453;-52
2022/01/17 09:44:28;;;;;;;16.87;16.17;;;19.20;61.90;;;;;;5032723;28;20453;-55
2022/01/17 09:46:57;;;;;;;16.87;15.93;;;19.20;61.50;;;;;;5032660;28;20460;-53
2022/01/17 09:49:33;;;;;;;17.50;16.70;;;19.30;61.00;;;;;;5032237;28;20488;-55
2022/01/17 09:54:46;;;;;;;18.40;17.40;;;19.20;60.10;;;;;;5019271;28;20427;-51
2022/01/17 09:57:14;;;;;;;18.80;17.90;;;19.20;60.00;;;;;;5032441;28;20962;-51
2022/01/17 09:59:43;;;;;;;17.33;16.23;;;19.20;59.80;;;;;;5032375;28;20954;-52
2022/01/17 10:02:11;;;;;;;16.17;15.57;;;19.30;59.80;;;;;;5032176;28;20445;-48
2022/01/17 10:04:38;;;;;;;18.40;17.50;;;19.30;59.50;;;;;;5032239;28;20502;-51
2022/01/17 10:07:07;;;;;;;16.97;16.23;;;19.30;59.20;;;;;;5032264;28;20441;-52
2022/01/17 10:09:36;;;;;;;16.73;15.93;;;19.30;59.20;;;;;;5032188;28;21075;-51
2022/01/17 10:12:06;;;;;;;17.47;16.67;;;19.30;59.00;;;;;;5032051;28;20682;-49
2022/01/17 10:14:36;;;;;;;17.00;16.30;;;19.30;58.90;;;;;;5032053;28;20446;-51
2022/01/17 10:17:10;;;;;;;18.60;17.80;;;19.30;58.90;;;;;;5032101;28;20442;-55
2022/01/17 10:19:39;;;;;;;16.53;15.83;;;19.10;58.80;;;;;;5031976;28;20469;-50
2022/01/17 10:22:14;;;;;;;17.50;16.70;;;19.00;59.00;;;;;;5031777;28;20499;-50
2022/01/17 10:24:51;;;;;;;16.10;15.30;;;18.90;59.10;;;;;;5032057;28;20448;-50
2022/01/17 10:27:46;;;;;;;17.00;16.10;;;18.90;59.30;;;;;;5031941;28;20511;-51
2022/01/17 10:36:06;;;;;;;17.90;17.07;;;18.60;59.50;;;;;;4951490;29;20433;-49
2022/01/17 10:38:34;;;;;;;19.17;18.10;;;18.60;59.80;;;;;;4951543;29;20637;-51
2022/01/17 10:41:04;;;;;;;18.63;17.73;;;18.50;59.90;;;;;;4986933;28;20531;-50
2022/01/17 10:43:34;;;;;;;19.77;18.90;;;18.40;60.00;;;;;;5031500;28;20452;-52
2022/01/17 10:46:03;;;;;;;19.33;18.33;;;18.30;60.50;;;;;;5031661;28;20441;-50
2022/01/17 10:48:34;;;;;;;19.53;18.67;;;18.20;60.90;;;;;;5031465;28;20441;-49
2022/01/17 10:51:03;;;;;;;18.53;17.63;;;18.20;61.20;;;;;;5031385;28;20998;-48
2022/01/17 10:53:30;;;;;;;18.37;17.47;;;18.10;61.30;;;;;;5031341;28;20445;-50
2022/01/17 10:55:59;;;;;;;18.80;18.00;;;18.10;61.50;;;;;;5031519;28;20485;-53
2022/01/17 10:58:28;;;;;;;18.53;17.73;;;18.10;61.60;;;;;;5031553;28;20481;-55
2022/01/17 11:00:57;;;;;;;18.93;18.13;;;18.00;61.50;;;;;;5031369;28;20465;-51
2022/01/17 11:03:28;;;;;;;18.53;17.63;;;18.00;61.70;;;;;;5031214;28;20449;-50
2022/01/17 11:05:58;;;;;;;18.93;18.03;;;18.00;61.90;;;;;;5030812;28;20445;-50
2022/01/17 11:08:28;;;;;;;19.33;18.43;;;18.00;62.10;;;;;;5031446;28;20473;-51
2022/01/17 11:10:57;;;;;;;19.03;18.13;;;18.00;62.10;;;;;;5031219;28;20492;-49
2022/01/17 11:13:26;;;;;;;18.70;17.80;;;18.00;61.80;;;;;;5029780;28;20449;-50
2022/01/17 11:15:55;;;;;;;17.70;16.90;;;18.00;61.80;;;;;;5031590;28;20824;-51
2022/01/17 11:18:26;;;;;;;18.93;18.03;;;18.00;61.80;;;;;;5031291;28;20445;-50
2022/01/17 11:21:00;;;;;;;18.33;17.63;;;18.10;61.40;;;;;;5031342;28;20507;-50
2022/01/17 11:23:28;;;;;;;18.70;18.00;;;18.10;62.00;;;;;;5030774;28;20978;-50
2022/01/17 11:25:57;;;;;;;20.77;19.57;;;18.20;65.20;;;;;;5031190;28;20911;-51
2022/01/17 11:28:26;;;;;;;19.43;18.53;;;18.10;66.60;;;;;;5031465;28;20811;-47
2022/01/17 11:30:57;;;;;;;21.13;19.93;;;18.20;71.30;;;;;;5030920;28;20494;-47
2022/01/17 11:33:26;;;;;;;19.17;18.30;;;18.30;73.40;;;;;;5030537;28;20528;-52
2022/01/17 11:35:54;;;;;;;18.80;17.90;;;18.30;73.60;;;;;;5031141;28;20453;-51
2022/01/17 11:38:26;;;;;;;18.43;17.50;;;18.40;73.00;;;;;;5031039;28;21165;-51
2022/01/17 11:40:54;;;;;;;19.07;18.17;;;18.40;72.00;;;;;;5031051;28;20469;-54
2022/01/17 11:43:26;;;;;;;19.50;18.60;;;18.50;71.10;;;;;;5030678;28;20564;-49
2022/01/17 11:45:54;;;;;;;20.23;19.10;;;18.30;70.40;;;;;;5031130;28;20448;-51
2022/01/17 11:48:25;;;;;;;19.00;18.20;;;18.20;70.00;;;;;;5031069;28;20445;-51
2022/01/17 11:50:56;;;;;;;18.40;17.50;;;18.10;70.00;;;;;;5030694;28;20484;-50
2022/01/17 11:53:52;;;;;;;19.60;18.60;;;18.10;69.50;;;;;;5030809;28;20445;-50
2022/01/17 11:56:44;;;;;;;18.53;17.53;;;18.10;68.90;;;;;;5031033;28;20799;-50
2022/01/17 11:59:39;;;;;;;18.67;17.63;;;18.00;68.70;;;;;;5030962;28;20449;-49
2022/01/17 12:02:27;;;;;;;18.13;17.33;;;18.00;68.60;;;;;;5030702;28;20448;-50
2022/01/17 12:05:31;;;;;;;18.40;17.60;;;18.00;68.30;;;;;;5030891;28;20822;-53
2022/01/17 12:07:58;;;;;;;18.07;17.10;;;17.90;68.00;;;;;;5030999;28;20447;-53
2022/01/17 12:10:29;;;;;;;17.90;17.10;;;17.90;68.20;;;;;;5030704;28;20859;-48
2022/01/17 12:13:35;;;;;;;18.37;17.57;;;17.90;68.00;;;;;;5030690;28;20460;-52
2022/01/17 12:16:11;;;;;;;18.53;17.63;;;17.80;67.80;;;;;;5030828;28;20449;-50
2022/01/17 12:18:40;;;;;;;16.77;16.07;;;17.80;67.90;;;;;;5034342;28;20441;-49
2022/01/17 12:21:19;;;;;;;18.50;17.50;;;17.80;67.70;;;;;;5034354;28;20461;-51
2022/01/17 12:23:47;;;;;;;19.30;18.37;;;17.80;67.50;;;;;;5033927;28;20492;-49
2022/01/17 12:26:28;;;;;;;20.00;19.00;;;17.80;67.30;;;;;;5034457;28;20451;-49
2022/01/17 12:28:57;;;;;;;19.30;18.30;;;17.80;67.10;;;;;;5034156;28;20449;-53
2022/01/17 12:31:46;;;;;;;18.67;17.60;;;17.70;66.90;;;;;;5034026;28;20830;-50
2022/01/17 12:34:18;;;;;;;17.70;16.90;;;17.70;66.90;;;;;;5034029;28;20938;-51
2022/01/17 12:36:47;;;;;;;17.67;16.70;;;17.70;66.70;;;;;;5033938;28;20452;-51
2022/01/17 12:39:17;;;;;;;17.30;16.60;;;17.70;66.60;;;;;;5033901;28;20445;-50
2022/01/17 12:41:48;;;;;;;17.80;17.00;;;17.70;66.50;;;;;;5033708;28;20935;-49
2022/01/17 12:44:17;;;;;;;19.50;18.33;;;17.90;66.00;;;;;;5033861;28;20867;-51
2022/01/17 12:46:46;;;;;;;17.43;16.57;;;17.90;65.20;;;;;;5033745;28;20449;-52
2022/01/17 12:49:13;;;;;;;18.10;17.20;;;17.90;64.90;;;;;;5033528;28;20449;-50
2022/01/17 12:51:41;;;;;;;16.93;16.23;;;17.90;64.70;;;;;;5033584;28;20652;-50